Wintersville, Ohio
Current Conditions -  °F | °C
As of 7:53 AM on Thursday 27 Nov 2014 (Local Time) from KHLG Reporting Station
Overcast Overcast  
Wind Chill: 25°   Ceiling: 4000
Heat Index: 31°   Visibility: 7mi
Dew Point: 26°   Wind: 6mph
Humidity: 82%   Direction: 320°NW
Pressure: 30.05"   Gusts: NA
Location:  40.3638°N, 80.7135°W
Report Text: KHLG 271253Z 32005KT 7SM OVC040 M01/M03 A3005 RMK AO2 SLP189 T10061033
Loading
Personal Weather Stations






























Interactive Weather Map New forecast layout! Learn more

10-Day Weather Forecast

Advertisements
Track Severe Weather on mobile